Saxapahaw, North Carolina
Current Conditions -  °F | °C
As of 2:54 AM on Wednesday 26 Nov 2014 (Local Time) from KBUY Reporting Station
Moderate Rain Moderate Rain  
Wind Chill: 42°   Ceiling: 700
Heat Index: 47°   Visibility: 5mi
Dew Point: 44°   Wind: 10mph
Humidity: 90%   Direction: 360°N
Pressure: 29.96"   Gusts: NA
Location:  35.95°N, 79.32°W
Report Text: KBUY 260754Z AUTO 36009KT 5SM RA BR OVC007 08/07 A2996 RMK AO2 CIG 005V010 SLP144 P0008 T00830067
Loading
Personal Weather Stations






























Interactive Weather Map New forecast layout! Learn more

10-Day Weather Forecast

Advertisements
Track Severe Weather on mobile